createdAt,value
2023-05-11T00:02:21.313Z,101477.02
2023-05-11T00:04:51.324Z,101471.42
2023-05-11T00:07:21.313Z,101477.29
2023-05-11T00:09:51.298Z,101480.34
2023-05-11T00:12:20.831Z,101478.83
2023-05-11T00:14:51.008Z,101479.37
2023-05-11T00:17:20.903Z,101478.15
2023-05-11T00:19:50.850Z,101475.77
2023-05-11T00:22:20.523Z,101479.59
2023-05-11T00:24:50.329Z,101475.02
2023-05-11T00:27:20.147Z,101470.30
2023-05-11T00:29:50.237Z,101470.55
2023-05-11T00:32:20.118Z,101466.72
2023-05-11T00:34:50.044Z,101467.48
2023-05-11T00:37:19.994Z,101462.75
2023-05-11T00:39:50.088Z,101459.83
2023-05-11T00:42:19.614Z,101459.83
2023-05-11T00:44:49.438Z,101457.33
2023-05-11T00:47:19.318Z,101460.06
2023-05-11T00:49:50.775Z,101462.68
2023-05-11T00:52:22.473Z,101465.02
2023-05-11T00:54:52.485Z,101467.92
2023-05-11T00:57:22.805Z,101468.02
2023-05-11T00:59:52.617Z,101466.46
2023-05-11T01:02:22.704Z,101463.78
2023-05-11T01:04:52.911Z,101463.48
2023-05-11T01:07:28.665Z,101465.92
2023-05-11T01:09:58.983Z,101459.98
2023-05-11T01:12:48.224Z,101464.05
2023-05-11T01:15:26.610Z,101464.13
2023-05-11T01:18:05.690Z,101471.66
2023-05-11T01:20:36.485Z,101470.50
2023-05-11T01:23:28.688Z,101471.66
2023-05-11T01:26:04.265Z,101467.58
2023-05-11T01:28:59.106Z,101467.23
2023-05-11T01:31:34.762Z,101470.30
2023-05-11T01:34:07.604Z,101471.53
2023-05-11T01:36:40.792Z,101474.28
2023-05-11T01:39:14.010Z,101478.31
2023-05-11T01:41:46.719Z,101482.59
2023-05-11T01:44:18.343Z,101482.59
2023-05-11T01:46:50.129Z,101477.47
2023-05-11T01:49:22.654Z,101479.45
2023-05-11T01:51:54.517Z,101484.39
2023-05-11T01:54:26.455Z,101481.87
2023-05-11T01:56:58.099Z,101481.97
2023-05-11T01:59:29.166Z,101485.94
2023-05-11T02:02:01.165Z,101486.55
2023-05-11T02:04:32.741Z,101483.27
2023-05-11T02:07:03.392Z,101487.34
2023-05-11T02:09:35.157Z,101486.67
2023-05-11T02:12:06.839Z,101489.12
2023-05-11T02:14:39.131Z,101484.63
2023-05-11T02:17:11.074Z,101490.06
2023-05-11T02:19:43.305Z,101483.86
2023-05-11T02:22:14.431Z,101486.45
2023-05-11T02:24:44.375Z,101481.81
2023-05-11T02:27:14.209Z,101490.20
2023-05-11T02:29:44.332Z,101486.31
2023-05-11T02:32:17.231Z,101480.13
2023-05-11T02:34:50.136Z,101489.45
2023-05-11T02:37:23.439Z,101489.19
2023-05-11T02:40:06.121Z,101489.40
2023-05-11T02:42:39.301Z,101495.06
2023-05-11T02:45:14.512Z,101487.16
2023-05-11T02:47:49.868Z,101486.45
2023-05-11T02:50:24.413Z,101486.31
2023-05-11T02:52:57.642Z,101468.84
2023-05-11T02:55:29.932Z,101468.84
2023-05-11T02:58:00.038Z,101480.75
2023-05-11T03:00:30.617Z,101486.54
2023-05-11T03:03:00.616Z,101483.09
2023-05-11T03:05:30.962Z,101481.72
2023-05-11T03:08:01.861Z,101483.70
2023-05-11T03:10:31.803Z,101485.61
2023-05-11T03:13:02.469Z,101485.61
2023-05-11T03:15:33.615Z,101483.19
2023-05-11T03:18:05.678Z,101481.63
2023-05-11T03:20:37.942Z,101481.63
2023-05-11T03:23:09.395Z,101478.98
2023-05-11T03:25:42.036Z,101479.92
2023-05-11T03:28:15.670Z,101480.21
2023-05-11T03:30:48.938Z,101485.30
2023-05-11T03:33:20.973Z,101488.58
2023-05-11T03:35:52.232Z,101485.40
2023-05-11T03:38:24.981Z,101491.11
2023-05-11T03:40:55.753Z,101492.25
2023-05-11T03:43:27.865Z,101487.72
2023-05-11T03:45:58.868Z,101482.88
2023-05-11T03:48:28.831Z,101481.89
2023-05-11T03:50:58.993Z,101484.34
2023-05-11T03:53:28.946Z,101479.95
2023-05-11T03:55:59.184Z,101487.05
2023-05-11T03:58:28.848Z,101480.34
2023-05-11T04:00:58.817Z,101487.97
2023-05-11T04:03:28.778Z,101476.94
2023-05-11T04:05:58.719Z,101480.55
2023-05-11T04:08:28.383Z,101480.87
2023-05-11T04:10:57.887Z,101485.16
2023-05-11T04:13:27.751Z,101486.28
2023-05-11T04:15:57.616Z,101486.30
2023-05-11T04:18:27.522Z,101488.45
2023-05-11T04:20:57.973Z,101486.52
2023-05-11T04:23:28.414Z,101488.07
2023-05-11T04:26:00.680Z,101489.73
2023-05-11T04:28:30.663Z,101496.36
2023-05-11T04:31:00.597Z,101496.36
2023-05-11T04:33:31.400Z,101496.73
2023-05-11T04:36:01.303Z,101500.02
2023-05-11T04:38:31.883Z,101505.22
2023-05-11T04:41:09.264Z,101507.52
2023-05-11T04:43:41.380Z,101503.48
2023-05-11T04:46:13.418Z,101509.41
2023-05-11T04:48:44.016Z,101510.73
2023-05-11T04:51:14.084Z,101507.66
2023-05-11T04:53:45.950Z,101512.23
2023-05-11T04:56:15.672Z,101507.33
2023-05-11T04:58:45.478Z,101513.41
2023-05-11T05:01:15.329Z,101515.41
2023-05-11T05:03:47.023Z,101507.17
2023-05-11T05:06:16.894Z,101512.83
2023-05-11T05:08:46.995Z,101510.72
2023-05-11T05:11:17.800Z,101513.75
2023-05-11T05:13:47.992Z,101511.07
2023-05-11T05:16:17.576Z,101511.05
2023-05-11T05:18:47.788Z,101510.77
2023-05-11T05:21:17.927Z,101510.20
2023-05-11T05:23:48.044Z,101512.34
2023-05-11T05:26:17.838Z,101512.34
2023-05-11T05:28:49.251Z,101518.59
2023-05-11T05:31:20.845Z,101517.53
2023-05-11T05:33:51.421Z,101518.67
2023-05-11T05:36:21.061Z,101521.59
2023-05-11T05:38:51.223Z,101519.46
2023-05-11T05:41:22.310Z,101519.46
2023-05-11T05:43:53.958Z,101520.97
2023-05-11T05:46:24.165Z,101518.59
2023-05-11T05:48:54.391Z,101525.47
2023-05-11T05:51:24.268Z,101518.56
2023-05-11T05:53:54.765Z,101524.86
2023-05-11T05:56:24.690Z,101532.98
2023-05-11T05:58:54.498Z,101549.31
2023-05-11T06:01:24.482Z,101549.31
2023-05-11T06:03:55.812Z,101551.39
2023-05-11T06:06:27.154Z,101553.88
2023-05-11T06:08:57.273Z,101554.17
2023-05-11T06:11:27.349Z,101557.01
2023-05-11T06:13:57.198Z,101557.01
2023-05-11T06:16:28.152Z,101555.91
2023-05-11T06:18:58.119Z,101558.71
2023-05-11T06:21:28.086Z,101558.71
2023-05-11T06:23:58.292Z,101557.39
2023-05-11T06:26:28.772Z,101559.99
2023-05-11T06:28:58.631Z,101555.95
2023-05-11T06:31:29.389Z,101556.81
2023-05-11T06:33:59.356Z,101558.02
2023-05-11T06:36:30.298Z,101565.84
2023-05-11T06:39:00.221Z,101559.86
2023-05-11T06:41:30.065Z,101560.70
2023-05-11T06:44:00.646Z,101560.56
2023-05-11T06:46:32.484Z,101550.09
2023-05-11T06:49:02.891Z,101558.49
2023-05-11T06:51:32.975Z,101561.72
2023-05-11T06:54:02.818Z,101559.55
2023-05-11T06:56:34.038Z,101558.41
2023-05-11T06:59:05.181Z,101567.23
2023-05-11T07:01:35.440Z,101557.58
2023-05-11T07:04:06.005Z,101561.48
2023-05-11T07:06:36.084Z,101564.41
2023-05-11T07:09:06.425Z,101564.41
2023-05-11T07:11:37.277Z,101566.28
2023-05-11T07:14:08.348Z,101566.28
2023-05-11T07:16:38.521Z,101566.28
2023-05-11T07:19:09.683Z,101571.19
2023-05-11T07:21:39.856Z,101575.91
2023-05-11T07:24:10.664Z,101575.78
2023-05-11T07:26:40.885Z,101573.34
2023-05-11T07:29:11.656Z,101574.47
2023-05-11T07:31:42.902Z,101583.13
2023-05-11T07:34:14.839Z,101581.98
2023-05-11T07:36:45.095Z,101580.82
2023-05-11T07:39:16.547Z,101576.93
2023-05-11T07:41:47.127Z,101578.46
2023-05-11T07:44:18.466Z,101581.95
2023-05-11T07:46:48.424Z,101579.85
2023-05-11T07:49:22.945Z,101583.20
2023-05-11T07:51:52.166Z,101582.67
2023-05-11T07:54:22.134Z,101589.37
2023-05-11T07:56:52.088Z,101585.34
2023-05-11T07:59:22.281Z,101584.25
2023-05-11T08:01:52.549Z,101581.23
2023-05-11T08:04:22.456Z,101582.22
2023-05-11T08:06:52.668Z,101582.91
2023-05-11T08:09:23.814Z,101567.89
2023-05-11T08:11:54.003Z,101567.89
2023-05-11T08:14:25.168Z,101592.84
2023-05-11T08:16:54.759Z,101589.09
2023-05-11T08:19:24.921Z,101584.48
2023-05-11T08:21:54.776Z,101586.27
2023-05-11T08:24:24.885Z,101588.30
2023-05-11T08:26:54.709Z,101588.83
2023-05-11T08:29:26.437Z,101589.61
2023-05-11T08:31:56.668Z,101589.61
2023-05-11T08:34:26.426Z,101593.53
2023-05-11T08:36:56.415Z,101595.16
2023-05-11T08:39:43.605Z,101587.73
2023-05-11T08:41:59.698Z,101594.25
2023-05-11T08:44:32.867Z,101589.81
2023-05-11T08:47:20.940Z,101589.81
2023-05-11T08:49:37.260Z,101591.32
2023-05-11T08:52:07.958Z,101591.49
2023-05-11T08:54:38.278Z,101587.95
2023-05-11T08:57:08.742Z,101583.44
2023-05-11T08:59:39.273Z,101584.79
2023-05-11T09:02:12.151Z,101589.77
2023-05-11T09:04:42.987Z,101587.06
2023-05-11T09:07:14.947Z,101584.94
2023-05-11T09:09:46.184Z,101584.62
2023-05-11T09:12:17.912Z,101575.48
2023-05-11T09:14:47.790Z,101576.98
2023-05-11T09:17:17.649Z,101589.84
2023-05-11T09:20:09.167Z,101583.83
2023-05-11T09:22:46.847Z,101585.02
2023-05-11T09:25:20.017Z,101589.81
2023-05-11T09:27:50.492Z,101594.80
2023-05-11T09:30:24.327Z,101590.77
2023-05-11T09:32:58.948Z,101590.41
2023-05-11T09:35:30.669Z,101593.56
2023-05-11T09:38:15.083Z,101590.59
2023-05-11T09:40:56.131Z,101591.63
2023-05-11T09:43:29.406Z,101593.67
2023-05-11T09:46:05.003Z,101593.00
2023-05-11T09:48:35.368Z,101595.42
2023-05-11T09:51:07.280Z,101595.81
2023-05-11T09:53:40.922Z,101594.02
2023-05-11T09:56:14.064Z,101599.05
2023-05-11T09:58:52.455Z,101597.64
2023-05-11T10:01:30.884Z,101600.42
2023-05-11T10:04:21.004Z,101588.77
2023-05-11T10:06:54.379Z,101576.23
2023-05-11T10:09:28.579Z,101576.23
2023-05-11T10:11:58.686Z,101590.41
2023-05-11T10:14:29.676Z,101590.11
2023-05-11T10:17:01.476Z,101585.05
2023-05-11T10:19:32.800Z,101588.73
2023-05-11T10:22:05.749Z,101582.61
2023-05-11T10:24:36.621Z,101580.71
2023-05-11T10:27:07.056Z,101579.63
2023-05-11T10:29:38.163Z,101578.45
2023-05-11T10:32:09.282Z,101577.75
2023-05-11T10:34:41.121Z,101582.91
2023-05-11T10:37:11.587Z,101581.77
2023-05-11T10:39:42.546Z,101577.01
2023-05-11T10:42:27.167Z,101577.01
2023-05-11T10:45:21.401Z,101579.42
2023-05-11T10:48:16.475Z,101579.95
2023-05-11T10:50:52.045Z,101576.39
2023-05-11T10:53:24.721Z,101589.01
2023-05-11T10:56:06.467Z,101581.08
2023-05-11T10:58:58.213Z,101583.72
2023-05-11T11:01:30.942Z,101586.88
2023-05-11T11:04:09.416Z,101578.87
2023-05-11T11:06:41.981Z,101569.88
2023-05-11T11:09:17.231Z,101569.88
2023-05-11T11:11:50.622Z,101585.05
2023-05-11T11:14:20.743Z,101584.52
2023-05-11T11:17:19.355Z,101579.74
2023-05-11T11:19:49.563Z,101581.92
2023-05-11T11:25:20.766Z,101584.75
2023-05-11T11:27:53.976Z,101564.59
2023-05-11T11:30:30.523Z,101564.59
2023-05-11T11:33:12.601Z,101575.05
2023-05-11T11:35:46.057Z,101575.81
2023-05-11T11:38:18.999Z,101576.81
2023-05-11T11:40:52.508Z,101576.61
2023-05-11T11:43:25.356Z,101576.91
2023-05-11T11:45:57.504Z,101576.91
2023-05-11T11:48:35.812Z,101572.56
2023-05-11T11:51:13.848Z,101568.78
2023-05-11T11:53:47.013Z,101568.56
2023-05-11T11:56:21.489Z,101570.45
2023-05-11T11:58:54.344Z,101573.25
2023-05-11T12:01:27.554Z,101567.68
2023-05-11T12:04:26.197Z,101581.22
2023-05-11T12:06:59.511Z,101577.45
2023-05-11T12:09:29.855Z,101581.80
2023-05-11T12:12:02.107Z,101581.80
2023-05-11T12:14:32.434Z,101579.25
2023-05-11T12:17:04.029Z,101581.99
2023-05-11T12:19:34.163Z,101579.44
2023-05-11T12:22:04.116Z,101579.44
2023-05-11T12:24:34.497Z,101579.41
2023-05-11T12:27:04.951Z,101579.41
2023-05-11T12:29:34.604Z,101588.27
2023-05-11T12:32:04.157Z,101589.37
2023-05-11T12:34:34.204Z,101572.09
2023-05-11T12:37:07.111Z,101572.09
2023-05-11T12:39:37.578Z,101585.48
2023-05-11T12:42:07.803Z,101581.80
2023-05-11T12:44:38.144Z,101584.02
2023-05-11T12:47:08.098Z,101582.72
2023-05-11T12:49:38.281Z,101585.06
2023-05-11T12:52:09.173Z,101586.41
2023-05-11T12:54:41.748Z,101586.70
2023-05-11T12:57:26.084Z,101585.45
2023-05-11T13:00:16.548Z,101564.45
2023-05-11T13:02:50.001Z,101564.45
2023-05-11T13:05:27.360Z,101581.46
2023-05-11T13:08:02.153Z,101576.78
2023-05-11T13:10:32.725Z,101576.78
2023-05-11T13:13:02.914Z,101577.73
2023-05-11T13:15:33.264Z,101577.73
2023-05-11T13:18:04.159Z,101578.80
2023-05-11T13:20:35.596Z,101574.05
2023-05-11T13:23:11.404Z,101581.24
2023-05-11T13:25:49.720Z,101575.16
2023-05-11T13:28:23.330Z,101577.06
2023-05-11T13:30:54.925Z,101582.72
2023-05-11T13:33:25.130Z,101580.92
2023-05-11T13:35:54.957Z,101577.88
2023-05-11T13:38:25.091Z,101577.88
2023-05-11T13:40:54.885Z,101572.74
2023-05-11T13:43:24.989Z,101567.56
2023-05-11T13:45:55.777Z,101570.92
2023-05-11T13:48:26.084Z,101566.58
2023-05-11T13:50:55.959Z,101566.66
2023-05-11T13:53:26.216Z,101567.02
2023-05-11T13:55:56.105Z,101564.60
2023-05-11T13:58:26.703Z,101564.69
2023-05-11T14:01:07.302Z,101564.69
2023-05-11T14:03:30.015Z,101559.11
2023-05-11T14:06:00.012Z,101562.23
2023-05-11T14:08:30.189Z,101554.18
2023-05-11T14:10:59.713Z,101553.88
2023-05-11T14:13:29.865Z,101554.84
2023-05-11T14:15:59.714Z,101550.70
2023-05-11T14:18:29.535Z,101550.62
2023-05-11T14:21:00.630Z,101548.42
2023-05-11T14:23:30.781Z,101551.16
2023-05-11T14:26:00.636Z,101550.24
2023-05-11T14:28:31.200Z,101552.77
2023-05-11T14:31:01.201Z,101556.00
2023-05-11T14:33:31.112Z,101546.95
2023-05-11T14:36:00.970Z,101546.95
2023-05-11T14:38:31.728Z,101548.05
2023-05-11T14:41:03.050Z,101552.05
2023-05-11T14:43:32.854Z,101552.05
2023-05-11T14:46:04.325Z,101541.93
2023-05-11T14:48:34.142Z,101541.93
2023-05-11T14:51:04.896Z,101552.13
2023-05-11T14:53:34.776Z,101560.09
2023-05-11T14:56:05.047Z,101556.20
2023-05-11T14:58:34.887Z,101563.05
2023-05-11T15:01:05.052Z,101555.39
2023-05-11T15:03:36.860Z,101555.39
2023-05-11T15:06:06.855Z,101552.90
2023-05-11T15:08:36.450Z,101549.73
2023-05-11T15:11:06.249Z,101545.45
2023-05-11T15:13:36.062Z,101549.41
2023-05-11T15:16:06.298Z,101553.48
2023-05-11T15:18:35.778Z,101560.69
2023-05-11T15:21:06.076Z,101551.55
2023-05-11T15:23:35.905Z,101558.38
2023-05-11T15:26:05.895Z,101553.25
2023-05-11T15:28:35.426Z,101552.92
2023-05-11T15:31:04.973Z,101556.89
2023-05-11T15:33:34.823Z,101551.65
2023-05-11T15:36:04.816Z,101555.91
2023-05-11T15:38:34.323Z,101548.77
2023-05-11T15:41:04.150Z,101554.76
2023-05-11T15:43:34.488Z,101555.16
2023-05-11T15:46:05.004Z,101561.12
2023-05-11T15:48:35.001Z,101563.95
2023-05-11T15:51:04.683Z,101556.50
2023-05-11T15:53:34.835Z,101566.43
2023-05-11T15:56:04.705Z,101561.91
2023-05-11T15:58:34.324Z,101564.30
2023-05-11T16:01:04.247Z,101567.68
2023-05-11T16:03:34.157Z,101564.88
2023-05-11T16:06:04.280Z,101562.99
2023-05-11T16:08:34.149Z,101570.14
2023-05-11T16:11:03.989Z,101570.13
2023-05-11T16:13:33.813Z,101565.44
2023-05-11T16:16:03.642Z,101566.84
2023-05-11T16:18:33.587Z,101577.31
2023-05-11T16:21:03.984Z,101568.59
2023-05-11T16:23:34.080Z,101562.08
2023-05-11T16:26:05.655Z,101565.68
2023-05-11T16:28:35.231Z,101556.73
2023-05-11T16:31:05.129Z,101553.97
2023-05-11T16:33:34.968Z,101557.63
2023-05-11T16:36:06.435Z,101560.77
2023-05-11T16:38:37.220Z,101556.57
2023-05-11T16:41:07.376Z,101550.84
2023-05-11T16:43:37.680Z,101550.47
2023-05-11T16:46:10.268Z,101537.11
2023-05-11T16:48:40.192Z,101537.11
2023-05-11T16:51:10.417Z,101561.28
2023-05-11T16:53:40.330Z,101560.86
2023-05-11T16:56:11.778Z,101568.10
2023-05-11T16:58:43.332Z,101568.10
2023-05-11T17:01:13.969Z,101570.22
2023-05-11T17:03:43.860Z,101568.27
2023-05-11T17:06:15.741Z,101570.92
2023-05-11T17:08:46.913Z,101551.50
2023-05-11T17:11:17.295Z,101551.50
2023-05-11T17:13:47.146Z,101573.34
2023-05-11T17:16:17.791Z,101575.09
2023-05-11T17:18:47.486Z,101570.98
2023-05-11T17:21:17.653Z,101567.39
2023-05-11T17:23:47.622Z,101579.09
2023-05-11T17:26:17.466Z,101571.30
2023-05-11T17:28:47.891Z,101571.09
2023-05-11T17:31:18.082Z,101570.88
2023-05-11T17:33:47.810Z,101573.45
2023-05-11T17:36:18.609Z,101570.56
2023-05-11T17:38:49.622Z,101576.54
2023-05-11T17:41:19.415Z,101578.70
2023-05-11T17:43:49.225Z,101576.39
2023-05-11T17:46:19.243Z,101580.20
2023-05-11T17:48:49.370Z,101577.48
2023-05-11T17:51:20.237Z,101580.74
2023-05-11T17:53:50.240Z,101577.66
2023-05-11T17:56:20.190Z,101577.92
2023-05-11T17:58:50.162Z,101582.66
2023-05-11T18:01:21.552Z,101574.71
2023-05-11T18:03:51.499Z,101575.86
2023-05-11T18:06:21.562Z,101582.98
2023-05-11T18:08:51.910Z,101581.14
2023-05-11T18:11:22.002Z,101575.72
2023-05-11T18:13:51.559Z,101582.68
2023-05-11T18:16:22.204Z,101576.70
2023-05-11T18:18:52.513Z,101583.44
2023-05-11T18:21:22.407Z,101587.52
2023-05-11T18:23:52.308Z,101589.95
2023-05-11T18:26:22.172Z,101591.55
2023-05-11T18:28:51.791Z,101589.33
2023-05-11T18:31:22.491Z,101592.54
2023-05-11T18:33:52.370Z,101590.58
2023-05-11T18:36:22.173Z,101592.84
2023-05-11T18:38:52.224Z,101596.92
2023-05-11T18:41:22.609Z,101604.39
2023-05-11T18:43:54.297Z,101602.63
2023-05-11T18:46:24.157Z,101603.52
2023-05-11T18:48:54.354Z,101604.48
2023-05-11T18:51:25.194Z,101606.97
2023-05-11T18:53:55.342Z,101611.10
2023-05-11T18:56:24.832Z,101610.67
2023-05-11T18:58:54.613Z,101612.97
2023-05-11T19:01:28.158Z,101618.50
2023-05-11T19:03:56.098Z,101618.12
2023-05-11T19:06:25.628Z,101618.39
2023-05-11T19:08:55.843Z,101624.46
2023-05-11T19:11:25.677Z,101623.14
2023-05-11T19:13:55.615Z,101624.95
2023-05-11T19:16:25.453Z,101629.66
2023-05-11T19:18:56.779Z,101630.19
2023-05-11T19:21:26.701Z,101630.19
2023-05-11T19:23:56.533Z,101633.75
2023-05-11T19:26:26.419Z,101629.58
2023-05-11T19:28:56.252Z,101645.03
2023-05-11T19:31:27.916Z,101644.78
2023-05-11T19:33:59.323Z,101646.98
2023-05-11T19:36:29.703Z,101659.25
2023-05-11T19:38:59.604Z,101652.87
2023-05-11T19:41:29.410Z,101661.63
2023-05-11T19:43:59.313Z,101663.98
2023-05-11T19:46:28.969Z,101666.59
2023-05-11T19:48:58.833Z,101662.39
2023-05-11T19:51:28.674Z,101672.98
2023-05-11T19:53:58.747Z,101668.81
2023-05-11T19:56:28.677Z,101673.91
2023-05-11T19:58:58.744Z,101667.30
2023-05-11T20:01:28.648Z,101673.52
2023-05-11T20:03:58.658Z,101679.41
2023-05-11T20:06:28.883Z,101678.36
2023-05-11T20:08:58.751Z,101686.54
2023-05-11T20:11:30.492Z,101687.58
2023-05-11T20:14:04.645Z,101686.41
2023-05-11T20:16:34.825Z,101690.72
2023-05-11T20:19:05.437Z,101684.84
2023-05-11T20:21:36.248Z,101691.17
2023-05-11T20:24:08.162Z,101695.34
2023-05-11T20:26:38.204Z,101683.33
2023-05-11T20:29:09.646Z,101693.20
2023-05-11T20:31:39.771Z,101698.05
2023-05-11T20:34:09.590Z,101698.05
2023-05-11T20:36:39.455Z,101694.58
2023-05-11T20:39:09.336Z,101681.31
2023-05-11T20:41:39.158Z,101681.31
2023-05-11T20:44:10.392Z,101690.78
2023-05-11T20:46:41.397Z,101692.27
2023-05-11T20:49:13.093Z,101688.42
2023-05-11T20:51:43.619Z,101692.10
2023-05-11T20:54:14.428Z,101676.75
2023-05-11T20:56:44.650Z,101676.75
2023-05-11T21:01:46.827Z,101696.20
2023-05-11T21:04:16.478Z,101689.72
2023-05-11T21:06:46.697Z,101692.59
2023-05-11T21:09:16.952Z,101688.19
2023-05-11T21:11:48.248Z,101687.17
2023-05-11T21:14:18.083Z,101687.17
2023-05-11T21:16:48.128Z,101688.93
2023-05-11T21:19:18.441Z,101689.23
2023-05-11T21:21:49.593Z,101687.95
2023-05-11T21:24:20.055Z,101689.55
2023-05-11T21:26:49.936Z,101691.70
2023-05-11T21:29:19.826Z,101684.73
2023-05-11T21:31:49.626Z,101682.59
2023-05-11T21:34:19.424Z,101687.86
2023-05-11T21:36:49.680Z,101688.00
2023-05-11T21:39:19.470Z,101687.94
2023-05-11T21:41:49.581Z,101694.34
2023-05-11T21:44:19.075Z,101689.39
2023-05-11T21:46:49.025Z,101695.05
2023-05-11T21:49:18.860Z,101695.55
2023-05-11T21:51:50.086Z,101690.81
2023-05-11T21:54:22.643Z,101692.50
2023-05-11T21:56:54.017Z,101698.99
2023-05-11T21:59:25.472Z,101698.61
2023-05-11T22:01:57.197Z,101698.61
2023-05-11T22:04:27.475Z,101702.06
2023-05-11T22:07:01.739Z,101699.55
2023-05-11T22:09:31.942Z,101700.52
2023-05-11T22:12:02.897Z,101696.17
2023-05-11T22:14:32.773Z,101696.48
2023-05-11T22:17:02.597Z,101695.78
2023-05-11T22:19:32.137Z,101696.08
2023-05-11T22:22:02.246Z,101698.21
2023-05-11T22:24:32.056Z,101699.41
2023-05-11T22:27:02.261Z,101704.87
2023-05-11T22:29:32.144Z,101704.87
2023-05-11T22:32:02.074Z,101702.69
2023-05-11T22:34:31.898Z,101693.47
2023-05-11T22:37:01.715Z,101689.88
2023-05-11T22:39:31.780Z,101696.03
2023-05-11T22:42:01.935Z,101692.50
2023-05-11T22:44:31.750Z,101692.50
2023-05-11T22:47:02.383Z,101689.38
2023-05-11T22:49:33.422Z,101691.28
2023-05-11T22:52:03.306Z,101692.06
2023-05-11T22:54:33.118Z,101686.82
2023-05-11T22:57:03.555Z,101693.38
2023-05-11T22:59:34.605Z,101691.81
2023-05-11T23:02:06.570Z,101689.88
2023-05-11T23:04:36.193Z,101686.52
2023-05-11T23:07:07.800Z,101693.91
2023-05-11T23:09:37.706Z,101689.28
2023-05-11T23:12:10.027Z,101688.11
2023-05-11T23:14:39.908Z,101689.18
2023-05-11T23:17:09.740Z,101690.64
2023-05-11T23:19:39.747Z,101694.03
2023-05-11T23:22:10.605Z,101692.14
2023-05-11T23:24:40.400Z,101692.34
2023-05-11T23:27:10.202Z,101687.79
2023-05-11T23:29:40.195Z,101688.95
2023-05-11T23:32:10.171Z,101686.02
2023-05-11T23:34:40.058Z,101684.84
2023-05-11T23:37:09.878Z,101684.30
2023-05-11T23:39:39.855Z,101677.97
2023-05-11T23:42:10.485Z,101677.34
2023-05-11T23:44:40.988Z,101682.00
2023-05-11T23:47:10.921Z,101679.66
2023-05-11T23:49:40.935Z,101677.13
2023-05-11T23:52:10.431Z,101678.70
2023-05-11T23:54:40.568Z,101675.92
2023-05-11T23:57:10.480Z,101671.69
2023-05-11T23:59:40.279Z,101668.32
